sensor_id;sensor_type;location;lat;lon;timestamp;temperature;humidity
480;DHT22;226;48.606;9.096;2023-09-07T00:01:50;13.60;67.30
480;DHT22;226;48.606;9.096;2023-09-07T00:04:19;13.60;65.70
480;DHT22;226;48.606;9.096;2023-09-07T00:06:49;13.70;64.30
480;DHT22;226;48.606;9.096;2023-09-07T00:09:18;13.60;63.70
480;DHT22;226;48.606;9.096;2023-09-07T00:11:48;13.60;63.20
480;DHT22;226;48.606;9.096;2023-09-07T00:14:16;13.70;63.30
480;DHT22;226;48.606;9.096;2023-09-07T00:16:46;13.70;63.80
480;DHT22;226;48.606;9.096;2023-09-07T00:19:14;13.70;62.70
480;DHT22;226;48.606;9.096;2023-09-07T00:21:42;13.70;64.20
480;DHT22;226;48.606;9.096;2023-09-07T00:24:10;13.70;64.70
480;DHT22;226;48.606;9.096;2023-09-07T00:26:38;13.60;63.90
480;DHT22;226;48.606;9.096;2023-09-07T00:29:07;13.70;62.30
480;DHT22;226;48.606;9.096;2023-09-07T00:31:35;13.90;64.20
480;DHT22;226;48.606;9.096;2023-09-07T00:34:05;13.60;64.80
480;DHT22;226;48.606;9.096;2023-09-07T00:36:33;13.60;64.10
480;DHT22;226;48.606;9.096;2023-09-07T00:39:01;13.50;64.40
480;DHT22;226;48.606;9.096;2023-09-07T00:41:30;13.50;64.30
480;DHT22;226;48.606;9.096;2023-09-07T00:43:58;13.60;65.40
480;DHT22;226;48.606;9.096;2023-09-07T00:46:26;13.40;64.40
480;DHT22;226;48.606;9.096;2023-09-07T00:48:54;13.40;63.70
480;DHT22;226;48.606;9.096;2023-09-07T00:51:24;13.40;65.50
480;DHT22;226;48.606;9.096;2023-09-07T00:53:52;13.30;65.40
480;DHT22;226;48.606;9.096;2023-09-07T00:56:21;13.40;66.90
480;DHT22;226;48.606;9.096;2023-09-07T00:58:49;13.40;66.80
480;DHT22;226;48.606;9.096;2023-09-07T01:01:17;13.40;65.90
480;DHT22;226;48.606;9.096;2023-09-07T01:03:46;13.80;65.80
480;DHT22;226;48.606;9.096;2023-09-07T01:06:18;13.50;64.70
480;DHT22;226;48.606;9.096;2023-09-07T01:08:51;13.70;64.20
480;DHT22;226;48.606;9.096;2023-09-07T01:11:21;13.40;64.80
480;DHT22;226;48.606;9.096;2023-09-07T01:13:51;13.50;62.10
480;DHT22;226;48.606;9.096;2023-09-07T01:16:21;13.40;60.70
480;DHT22;226;48.606;9.096;2023-09-07T01:18:51;13.40;60.90
480;DHT22;226;48.606;9.096;2023-09-07T01:21:19;13.20;63.50
480;DHT22;226;48.606;9.096;2023-09-07T01:23:50;13.20;63.90
480;DHT22;226;48.606;9.096;2023-09-07T01:26:18;13.20;65.20
480;DHT22;226;48.606;9.096;2023-09-07T01:28:47;13.20;66.70
480;DHT22;226;48.606;9.096;2023-09-07T01:31:15;13.20;67.10
480;DHT22;226;48.606;9.096;2023-09-07T01:33:44;13.20;66.70
480;DHT22;226;48.606;9.096;2023-09-07T01:36:12;13.30;66.10
480;DHT22;226;48.606;9.096;2023-09-07T01:38:40;13.00;64.70
480;DHT22;226;48.606;9.096;2023-09-07T01:41:10;13.00;66.10
480;DHT22;226;48.606;9.096;2023-09-07T01:43:38;13.00;64.80
480;DHT22;226;48.606;9.096;2023-09-07T01:46:07;12.90;64.20
480;DHT22;226;48.606;9.096;2023-09-07T01:48:36;12.90;65.10
480;DHT22;226;48.606;9.096;2023-09-07T01:51:04;12.90;66.20
480;DHT22;226;48.606;9.096;2023-09-07T01:53:32;13.00;66.80
480;DHT22;226;48.606;9.096;2023-09-07T01:56:00;13.20;67.30
480;DHT22;226;48.606;9.096;2023-09-07T01:58:30;13.10;66.80
480;DHT22;226;48.606;9.096;2023-09-07T02:00:59;13.00;67.40
480;DHT22;226;48.606;9.096;2023-09-07T02:03:27;12.90;67.30
480;DHT22;226;48.606;9.096;2023-09-07T02:05:56;13.10;67.50
480;DHT22;226;48.606;9.096;2023-09-07T02:08:24;12.90;66.70
480;DHT22;226;48.606;9.096;2023-09-07T02:10:52;13.00;64.40
480;DHT22;226;48.606;9.096;2023-09-07T02:13:20;13.10;64.20
480;DHT22;226;48.606;9.096;2023-09-07T02:15:50;12.90;61.80
480;DHT22;226;48.606;9.096;2023-09-07T02:18:18;12.50;60.90
480;DHT22;226;48.606;9.096;2023-09-07T02:20:46;13.00;61.30
480;DHT22;226;48.606;9.096;2023-09-07T02:23:15;13.30;58.80
480;DHT22;226;48.606;9.096;2023-09-07T02:25:43;13.00;57.00
480;DHT22;226;48.606;9.096;2023-09-07T02:28:11;13.00;59.20
480;DHT22;226;48.606;9.096;2023-09-07T02:30:39;13.30;60.60
480;DHT22;226;48.606;9.096;2023-09-07T02:33:09;13.00;61.30
480;DHT22;226;48.606;9.096;2023-09-07T02:35:37;12.90;64.00
480;DHT22;226;48.606;9.096;2023-09-07T02:38:05;12.80;64.60
480;DHT22;226;48.606;9.096;2023-09-07T02:40:40;13.00;66.40
480;DHT22;226;48.606;9.096;2023-09-07T02:43:08;13.10;65.60
480;DHT22;226;48.606;9.096;2023-09-07T02:45:37;12.80;66.60
480;DHT22;226;48.606;9.096;2023-09-07T02:48:06;12.80;65.90
480;DHT22;226;48.606;9.096;2023-09-07T02:50:35;12.80;66.30
480;DHT22;226;48.606;9.096;2023-09-07T02:53:03;12.90;62.70
480;DHT22;226;48.606;9.096;2023-09-07T02:55:31;12.80;61.00
480;DHT22;226;48.606;9.096;2023-09-07T02:58:02;12.80;60.90
480;DHT22;226;48.606;9.096;2023-09-07T03:00:31;12.70;63.90
480;DHT22;226;48.606;9.096;2023-09-07T03:02:59;12.70;66.30
480;DHT22;226;48.606;9.096;2023-09-07T03:05:27;12.90;69.00
480;DHT22;226;48.606;9.096;2023-09-07T03:07:57;12.70;68.00
480;DHT22;226;48.606;9.096;2023-09-07T03:10:25;12.70;68.30
480;DHT22;226;48.606;9.096;2023-09-07T03:12:54;12.60;69.20
480;DHT22;226;48.606;9.096;2023-09-07T03:15:22;12.70;68.00
480;DHT22;226;48.606;9.096;2023-09-07T03:17:50;13.10;63.50
480;DHT22;226;48.606;9.096;2023-09-07T03:20:18;12.80;66.20
480;DHT22;226;48.606;9.096;2023-09-07T03:22:47;12.60;69.60
480;DHT22;226;48.606;9.096;2023-09-07T03:25:16;12.70;71.40
480;DHT22;226;48.606;9.096;2023-09-07T03:27:44;12.50;74.10
480;DHT22;226;48.606;9.096;2023-09-07T03:30:12;12.50;74.90
480;DHT22;226;48.606;9.096;2023-09-07T03:32:40;12.60;72.70
480;DHT22;226;48.606;9.096;2023-09-07T03:35:09;12.40;71.20
480;DHT22;226;48.606;9.096;2023-09-07T03:37:37;12.40;69.30
480;DHT22;226;48.606;9.096;2023-09-07T03:40:06;12.40;70.90
480;DHT22;226;48.606;9.096;2023-09-07T03:42:37;12.40;67.90
480;DHT22;226;48.606;9.096;2023-09-07T03:45:06;12.60;70.80
480;DHT22;226;48.606;9.096;2023-09-07T03:47:34;12.60;69.20
480;DHT22;226;48.606;9.096;2023-09-07T03:50:03;12.40;70.60
480;DHT22;226;48.606;9.096;2023-09-07T03:52:31;12.40;68.60
480;DHT22;226;48.606;9.096;2023-09-07T03:55:00;12.40;66.20
480;DHT22;226;48.606;9.096;2023-09-07T03:57:28;12.40;65.20
480;DHT22;226;48.606;9.096;2023-09-07T03:59:58;12.40;63.80
480;DHT22;226;48.606;9.096;2023-09-07T04:02:26;12.80;65.40
480;DHT22;226;48.606;9.096;2023-09-07T04:04:55;12.70;64.30
480;DHT22;226;48.606;9.096;2023-09-07T04:07:23;12.90;61.60
480;DHT22;226;48.606;9.096;2023-09-07T04:09:51;12.60;61.00
480;DHT22;226;48.606;9.096;2023-09-07T04:12:19;12.40;62.90
480;DHT22;226;48.606;9.096;2023-09-07T04:17:29;12.40;66.90
480;DHT22;226;48.606;9.096;2023-09-07T04:20:07;12.40;66.30
480;DHT22;226;48.606;9.096;2023-09-07T04:22:35;12.30;65.00
480;DHT22;226;48.606;9.096;2023-09-07T04:25:04;12.60;64.90
480;DHT22;226;48.606;9.096;2023-09-07T04:27:32;12.30;63.10
480;DHT22;226;48.606;9.096;2023-09-07T04:30:05;12.20;65.70
480;DHT22;226;48.606;9.096;2023-09-07T04:32:35;12.20;62.30
480;DHT22;226;48.606;9.096;2023-09-07T04:35:03;12.30;65.60
480;DHT22;226;48.606;9.096;2023-09-07T04:37:31;12.10;65.20
480;DHT22;226;48.606;9.096;2023-09-07T04:39:59;12.10;65.90
480;DHT22;226;48.606;9.096;2023-09-07T04:42:28;12.20;63.90
480;DHT22;226;48.606;9.096;2023-09-07T04:44:56;12.10;58.70
480;DHT22;226;48.606;9.096;2023-09-07T04:47:24;12.10;58.60
480;DHT22;226;48.606;9.096;2023-09-07T04:49:53;12.10;59.00
480;DHT22;226;48.606;9.096;2023-09-07T04:52:22;12.40;59.30
480;DHT22;226;48.606;9.096;2023-09-07T04:54:50;12.00;60.60
480;DHT22;226;48.606;9.096;2023-09-07T04:57:18;12.20;63.80
480;DHT22;226;48.606;9.096;2023-09-07T04:59:46;12.00;63.40
480;DHT22;226;48.606;9.096;2023-09-07T05:02:14;12.00;64.10
480;DHT22;226;48.606;9.096;2023-09-07T05:04:42;12.00;65.10
480;DHT22;226;48.606;9.096;2023-09-07T05:07:11;12.00;65.80
480;DHT22;226;48.606;9.096;2023-09-07T05:09:40;11.90;65.10
480;DHT22;226;48.606;9.096;2023-09-07T05:12:08;12.00;64.30
480;DHT22;226;48.606;9.096;2023-09-07T05:14:37;12.00;65.20
480;DHT22;226;48.606;9.096;2023-09-07T05:17:05;11.90;65.90
480;DHT22;226;48.606;9.096;2023-09-07T05:19:33;12.00;66.00
480;DHT22;226;48.606;9.096;2023-09-07T05:22:02;12.00;62.80
480;DHT22;226;48.606;9.096;2023-09-07T05:24:31;12.10;60.90
480;DHT22;226;48.606;9.096;2023-09-07T05:26:59;12.20;60.60
480;DHT22;226;48.606;9.096;2023-09-07T05:29:27;12.20;60.40
480;DHT22;226;48.606;9.096;2023-09-07T05:31:56;12.20;60.10
480;DHT22;226;48.606;9.096;2023-09-07T05:34:28;12.20;60.30
480;DHT22;226;48.606;9.096;2023-09-07T05:36:56;12.30;58.40
480;DHT22;226;48.606;9.096;2023-09-07T05:39:24;12.60;57.50
480;DHT22;226;48.606;9.096;2023-09-07T05:41:54;12.40;55.90
480;DHT22;226;48.606;9.096;2023-09-07T05:44:22;12.50;55.20
480;DHT22;226;48.606;9.096;2023-09-07T05:46:50;12.60;56.00
480;DHT22;226;48.606;9.096;2023-09-07T05:49:18;12.60;57.70
480;DHT22;226;48.606;9.096;2023-09-07T05:51:47;12.50;57.30
480;DHT22;226;48.606;9.096;2023-09-07T05:54:15;12.60;59.50
480;DHT22;226;48.606;9.096;2023-09-07T05:56:43;12.70;59.00
480;DHT22;226;48.606;9.096;2023-09-07T05:59:13;12.70;59.90
480;DHT22;226;48.606;9.096;2023-09-07T06:01:41;12.70;60.50
480;DHT22;226;48.606;9.096;2023-09-07T06:04:09;12.80;59.90
480;DHT22;226;48.606;9.096;2023-09-07T06:06:38;13.00;58.90
480;DHT22;226;48.606;9.096;2023-09-07T06:09:06;13.10;56.50
480;DHT22;226;48.606;9.096;2023-09-07T06:11:34;13.30;55.40
480;DHT22;226;48.606;9.096;2023-09-07T06:14:02;13.40;54.60
480;DHT22;226;48.606;9.096;2023-09-07T06:16:32;13.50;55.60
480;DHT22;226;48.606;9.096;2023-09-07T06:19:00;13.50;54.70
480;DHT22;226;48.606;9.096;2023-09-07T06:21:28;13.60;54.50
480;DHT22;226;48.606;9.096;2023-09-07T06:23:56;13.70;52.50
480;DHT22;226;48.606;9.096;2023-09-07T06:26:24;13.80;53.80
480;DHT22;226;48.606;9.096;2023-09-07T06:28:53;13.90;53.20
480;DHT22;226;48.606;9.096;2023-09-07T06:31:21;14.00;52.50
480;DHT22;226;48.606;9.096;2023-09-07T06:33:51;14.10;51.80
480;DHT22;226;48.606;9.096;2023-09-07T06:36:19;14.20;51.30
480;DHT22;226;48.606;9.096;2023-09-07T06:39:03;14.20;51.50
480;DHT22;226;48.606;9.096;2023-09-07T06:41:32;14.20;53.30
480;DHT22;226;48.606;9.096;2023-09-07T06:44:00;14.30;53.50
480;DHT22;226;48.606;9.096;2023-09-07T06:46:29;14.40;54.70
480;DHT22;226;48.606;9.096;2023-09-07T06:48:58;14.50;54.80
480;DHT22;226;48.606;9.096;2023-09-07T06:51:27;14.70;54.70
480;DHT22;226;48.606;9.096;2023-09-07T06:53:56;14.80;53.90
480;DHT22;226;48.606;9.096;2023-09-07T06:56:24;14.90;53.40
480;DHT22;226;48.606;9.096;2023-09-07T06:58:53;15.20;52.50
480;DHT22;226;48.606;9.096;2023-09-07T07:01:21;15.20;52.90
480;DHT22;226;48.606;9.096;2023-09-07T07:03:49;15.40;52.70
480;DHT22;226;48.606;9.096;2023-09-07T07:06:19;15.50;53.00
480;DHT22;226;48.606;9.096;2023-09-07T07:08:47;15.60;53.00
480;DHT22;226;48.606;9.096;2023-09-07T07:11:15;15.80;52.60
480;DHT22;226;48.606;9.096;2023-09-07T07:13:43;15.90;51.90
480;DHT22;226;48.606;9.096;2023-09-07T07:16:12;16.00;51.50
480;DHT22;226;48.606;9.096;2023-09-07T07:18:40;16.10;53.30
480;DHT22;226;48.606;9.096;2023-09-07T07:21:10;16.30;51.70
480;DHT22;226;48.606;9.096;2023-09-07T07:23:39;16.40;52.30
480;DHT22;226;48.606;9.096;2023-09-07T07:26:08;16.50;53.10
480;DHT22;226;48.606;9.096;2023-09-07T07:28:36;16.60;53.90
480;DHT22;226;48.606;9.096;2023-09-07T07:31:08;16.80;52.80
480;DHT22;226;48.606;9.096;2023-09-07T07:33:36;16.80;54.30
480;DHT22;226;48.606;9.096;2023-09-07T07:36:05;17.10;53.60
480;DHT22;226;48.606;9.096;2023-09-07T07:38:33;17.20;55.60
480;DHT22;226;48.606;9.096;2023-09-07T07:41:03;17.30;54.40
480;DHT22;226;48.606;9.096;2023-09-07T07:43:32;17.50;52.30
480;DHT22;226;48.606;9.096;2023-09-07T07:46:03;17.70;52.80
480;DHT22;226;48.606;9.096;2023-09-07T07:48:31;17.80;50.20
480;DHT22;226;48.606;9.096;2023-09-07T07:51:03;17.90;50.20
480;DHT22;226;48.606;9.096;2023-09-07T07:53:35;18.10;49.40
480;DHT22;226;48.606;9.096;2023-09-07T07:56:04;18.20;53.00
480;DHT22;226;48.606;9.096;2023-09-07T07:58:32;18.30;43.40
480;DHT22;226;48.606;9.096;2023-09-07T08:01:01;18.50;40.40
480;DHT22;226;48.606;9.096;2023-09-07T08:03:29;18.60;40.30
480;DHT22;226;48.606;9.096;2023-09-07T08:05:59;18.70;41.20
480;DHT22;226;48.606;9.096;2023-09-07T08:08:27;18.80;39.80
480;DHT22;226;48.606;9.096;2023-09-07T08:10:56;18.90;39.10
480;DHT22;226;48.606;9.096;2023-09-07T08:13:28;19.00;38.50
480;DHT22;226;48.606;9.096;2023-09-07T08:15:56;19.10;39.70
480;DHT22;226;48.606;9.096;2023-09-07T08:18:25;19.10;39.30
480;DHT22;226;48.606;9.096;2023-09-07T08:20:53;19.20;40.70
480;DHT22;226;48.606;9.096;2023-09-07T08:23:22;19.30;38.50
480;DHT22;226;48.606;9.096;2023-09-07T08:25:51;19.40;39.10
480;DHT22;226;48.606;9.096;2023-09-07T08:28:19;19.40;37.10
480;DHT22;226;48.606;9.096;2023-09-07T08:30:51;19.50;37.80
480;DHT22;226;48.606;9.096;2023-09-07T08:33:20;19.60;36.70
480;DHT22;226;48.606;9.096;2023-09-07T08:35:56;19.70;30.80
480;DHT22;226;48.606;9.096;2023-09-07T08:38:26;19.80;31.80
480;DHT22;226;48.606;9.096;2023-09-07T08:40:56;19.80;31.10
480;DHT22;226;48.606;9.096;2023-09-07T08:43:29;19.80;38.30
480;DHT22;226;48.606;9.096;2023-09-07T08:46:06;19.90;37.10
480;DHT22;226;48.606;9.096;2023-09-07T08:48:39;20.00;36.00
480;DHT22;226;48.606;9.096;2023-09-07T08:51:09;20.00;34.80
480;DHT22;226;48.606;9.096;2023-09-07T08:53:39;20.10;34.30
480;DHT22;226;48.606;9.096;2023-09-07T08:56:07;20.20;32.40
480;DHT22;226;48.606;9.096;2023-09-07T08:58:37;20.30;31.70
480;DHT22;226;48.606;9.096;2023-09-07T09:01:08;20.40;31.20
480;DHT22;226;48.606;9.096;2023-09-07T09:03:36;20.50;30.00
480;DHT22;226;48.606;9.096;2023-09-07T09:06:05;20.50;29.10
480;DHT22;226;48.606;9.096;2023-09-07T09:08:44;20.60;28.20
480;DHT22;226;48.606;9.096;2023-09-07T09:11:12;20.70;29.70
480;DHT22;226;48.606;9.096;2023-09-07T09:13:41;20.80;28.80
480;DHT22;226;48.606;9.096;2023-09-07T09:16:11;20.80;28.20
480;DHT22;226;48.606;9.096;2023-09-07T09:18:48;20.90;29.40
480;DHT22;226;48.606;9.096;2023-09-07T09:21:19;21.00;30.00
480;DHT22;226;48.606;9.096;2023-09-07T09:23:49;21.10;30.00
480;DHT22;226;48.606;9.096;2023-09-07T09:26:17;21.20;28.80
480;DHT22;226;48.606;9.096;2023-09-07T09:28:46;21.20;28.00
480;DHT22;226;48.606;9.096;2023-09-07T09:31:17;21.40;27.70
480;DHT22;226;48.606;9.096;2023-09-07T09:33:48;21.40;26.60
480;DHT22;226;48.606;9.096;2023-09-07T09:36:18;21.40;27.10
480;DHT22;226;48.606;9.096;2023-09-07T09:38:48;21.40;27.80
480;DHT22;226;48.606;9.096;2023-09-07T09:41:19;21.40;26.50
480;DHT22;226;48.606;9.096;2023-09-07T09:43:48;21.40;26.40
480;DHT22;226;48.606;9.096;2023-09-07T09:46:19;21.50;26.70
480;DHT22;226;48.606;9.096;2023-09-07T09:48:48;21.50;28.10
480;DHT22;226;48.606;9.096;2023-09-07T09:51:18;21.70;28.00
480;DHT22;226;48.606;9.096;2023-09-07T09:53:47;21.00;27.50
480;DHT22;226;48.606;9.096;2023-09-07T09:56:16;21.90;26.40
480;DHT22;226;48.606;9.096;2023-09-07T09:58:45;22.00;26.60
480;DHT22;226;48.606;9.096;2023-09-07T10:01:13;22.10;25.80
480;DHT22;226;48.606;9.096;2023-09-07T10:03:46;21.90;25.30
480;DHT22;226;48.606;9.096;2023-09-07T10:06:19;21.90;25.90
480;DHT22;226;48.606;9.096;2023-09-07T10:08:54;21.90;26.80
480;DHT22;226;48.606;9.096;2023-09-07T10:11:31;22.00;26.70
480;DHT22;226;48.606;9.096;2023-09-07T10:14:00;22.30;26.20
480;DHT22;226;48.606;9.096;2023-09-07T10:16:41;22.20;24.70
480;DHT22;226;48.606;9.096;2023-09-07T10:19:19;22.10;25.20
480;DHT22;226;48.606;9.096;2023-09-07T10:21:47;22.20;25.00
480;DHT22;226;48.606;9.096;2023-09-07T10:24:26;22.30;25.60
480;DHT22;226;48.606;9.096;2023-09-07T10:26:59;22.50;25.70
480;DHT22;226;48.606;9.096;2023-09-07T10:29:27;22.50;24.10
480;DHT22;226;48.606;9.096;2023-09-07T10:31:55;22.40;24.20
480;DHT22;226;48.606;9.096;2023-09-07T10:34:36;22.30;24.60
480;DHT22;226;48.606;9.096;2023-09-07T10:37:06;22.40;24.80
480;DHT22;226;48.606;9.096;2023-09-07T10:39:37;22.50;24.50
480;DHT22;226;48.606;9.096;2023-09-07T10:42:06;22.50;23.80
480;DHT22;226;48.606;9.096;2023-09-07T10:44:33;22.50;24.60
480;DHT22;226;48.606;9.096;2023-09-07T10:47:04;22.60;23.60
480;DHT22;226;48.606;9.096;2023-09-07T10:49:32;22.80;24.20
480;DHT22;226;48.606;9.096;2023-09-07T10:52:03;22.90;24.00
480;DHT22;226;48.606;9.096;2023-09-07T10:54:31;23.00;22.20
480;DHT22;226;48.606;9.096;2023-09-07T10:57:08;23.00;22.70
480;DHT22;226;48.606;9.096;2023-09-07T10:59:36;23.00;22.70
480;DHT22;226;48.606;9.096;2023-09-07T11:02:05;23.20;22.60
480;DHT22;226;48.606;9.096;2023-09-07T11:04:33;23.30;22.50
480;DHT22;226;48.606;9.096;2023-09-07T11:07:03;23.50;21.80
480;DHT22;226;48.606;9.096;2023-09-07T11:09:32;23.60;22.50
480;DHT22;226;48.606;9.096;2023-09-07T11:12:04;23.70;20.90
480;DHT22;226;48.606;9.096;2023-09-07T11:14:33;23.60;20.80
480;DHT22;226;48.606;9.096;2023-09-07T11:17:01;23.70;21.20
480;DHT22;226;48.606;9.096;2023-09-07T11:19:32;23.90;22.30
480;DHT22;226;48.606;9.096;2023-09-07T11:22:00;24.10;21.10
480;DHT22;226;48.606;9.096;2023-09-07T11:24:34;24.20;20.20
480;DHT22;226;48.606;9.096;2023-09-07T11:27:02;24.40;20.70
480;DHT22;226;48.606;9.096;2023-09-07T11:29:31;24.60;20.20
480;DHT22;226;48.606;9.096;2023-09-07T11:32:06;24.60;18.00
480;DHT22;226;48.606;9.096;2023-09-07T11:34:34;24.40;18.70
480;DHT22;226;48.606;9.096;2023-09-07T11:37:03;24.50;18.00
480;DHT22;226;48.606;9.096;2023-09-07T11:39:33;24.60;18.70
480;DHT22;226;48.606;9.096;2023-09-07T11:42:01;24.60;19.50
480;DHT22;226;48.606;9.096;2023-09-07T11:44:29;24.60;19.40
480;DHT22;226;48.606;9.096;2023-09-07T11:46:57;24.80;18.80
480;DHT22;226;48.606;9.096;2023-09-07T11:49:25;24.90;17.50
480;DHT22;226;48.606;9.096;2023-09-07T11:51:53;24.80;17.90
480;DHT22;226;48.606;9.096;2023-09-07T11:54:21;24.90;17.60
480;DHT22;226;48.606;9.096;2023-09-07T11:56:51;24.80;18.00
480;DHT22;226;48.606;9.096;2023-09-07T11:59:19;24.80;18.40
480;DHT22;226;48.606;9.096;2023-09-07T12:01:47;25.00;17.20
480;DHT22;226;48.606;9.096;2023-09-07T12:04:16;25.10;17.60
480;DHT22;226;48.606;9.096;2023-09-07T12:06:44;25.10;17.30
480;DHT22;226;48.606;9.096;2023-09-07T12:09:12;25.20;16.90
480;DHT22;226;48.606;9.096;2023-09-07T12:11:41;25.30;16.70
480;DHT22;226;48.606;9.096;2023-09-07T12:14:11;25.50;16.10
480;DHT22;226;48.606;9.096;2023-09-07T12:16:40;25.60;15.60
480;DHT22;226;48.606;9.096;2023-09-07T12:19:08;25.70;15.70
480;DHT22;226;48.606;9.096;2023-09-07T12:21:36;25.70;16.00
480;DHT22;226;48.606;9.096;2023-09-07T12:24:05;25.80;16.80
480;DHT22;226;48.606;9.096;2023-09-07T12:26:33;25.90;14.90
480;DHT22;226;48.606;9.096;2023-09-07T12:29:01;25.80;14.60
480;DHT22;226;48.606;9.096;2023-09-07T12:31:31;25.80;15.40
480;DHT22;226;48.606;9.096;2023-09-07T12:33:59;26.00;16.40
480;DHT22;226;48.606;9.096;2023-09-07T12:36:27;26.20;14.70
480;DHT22;226;48.606;9.096;2023-09-07T12:38:56;26.30;13.90
480;DHT22;226;48.606;9.096;2023-09-07T12:41:28;26.40;15.00
480;DHT22;226;48.606;9.096;2023-09-07T12:43:56;26.40;13.50
480;DHT22;226;48.606;9.096;2023-09-07T12:46:25;26.70;12.80
480;DHT22;226;48.606;9.096;2023-09-07T12:48:57;26.70;12.60
480;DHT22;226;48.606;9.096;2023-09-07T12:51:25;26.60;13.90
480;DHT22;226;48.606;9.096;2023-09-07T12:53:53;26.80;13.70
480;DHT22;226;48.606;9.096;2023-09-07T12:56:21;26.80;12.00
480;DHT22;226;48.606;9.096;2023-09-07T12:58:50;26.90;13.20
480;DHT22;226;48.606;9.096;2023-09-07T13:01:19;27.00;12.40
480;DHT22;226;48.606;9.096;2023-09-07T13:03:48;27.20;11.50
480;DHT22;226;48.606;9.096;2023-09-07T13:06:17;27.30;10.20
480;DHT22;226;48.606;9.096;2023-09-07T13:08:45;27.30;9.60
480;DHT22;226;48.606;9.096;2023-09-07T13:11:13;27.20;11.80
480;DHT22;226;48.606;9.096;2023-09-07T13:13:41;27.40;9.40
480;DHT22;226;48.606;9.096;2023-09-07T13:16:09;27.50;9.50
480;DHT22;226;48.606;9.096;2023-09-07T13:18:38;27.80;8.20
480;DHT22;226;48.606;9.096;2023-09-07T13:21:06;28.00;8.00
480;DHT22;226;48.606;9.096;2023-09-07T13:23:36;28.20;7.80
480;DHT22;226;48.606;9.096;2023-09-07T13:26:04;28.40;7.50
480;DHT22;226;48.606;9.096;2023-09-07T13:28:32;28.60;7.00
480;DHT22;226;48.606;9.096;2023-09-07T13:31:00;28.80;6.90
480;DHT22;226;48.606;9.096;2023-09-07T13:33:29;29.00;6.80
480;DHT22;226;48.606;9.096;2023-09-07T13:35:58;29.30;8.50
480;DHT22;226;48.606;9.096;2023-09-07T13:38:26;29.30;7.20
480;DHT22;226;48.606;9.096;2023-09-07T13:40:56;29.80;5.40
480;DHT22;226;48.606;9.096;2023-09-07T13:43:24;30.20;3.40
480;DHT22;226;48.606;9.096;2023-09-07T13:48:20;31.10;1.00
480;DHT22;226;48.606;9.096;2023-09-07T13:50:49;31.90;1.00
480;DHT22;226;48.606;9.096;2023-09-07T13:53:17;32.60;1.00
480;DHT22;226;48.606;9.096;2023-09-07T13:55:45;34.10;1.00
480;DHT22;226;48.606;9.096;2023-09-07T13:58:15;34.40;1.00
480;DHT22;226;48.606;9.096;2023-09-07T14:00:43;35.20;1.00
480;DHT22;226;48.606;9.096;2023-09-07T14:03:13;35.80;1.00
480;DHT22;226;48.606;9.096;2023-09-07T14:05:41;36.40;1.00
480;DHT22;226;48.606;9.096;2023-09-07T14:08:09;36.40;1.00
480;DHT22;226;48.606;9.096;2023-09-07T14:10:37;36.60;1.00
480;DHT22;226;48.606;9.096;2023-09-07T14:13:05;37.20;7.80
480;DHT22;226;48.606;9.096;2023-09-07T14:18:04;38.00;1.00
480;DHT22;226;48.606;9.096;2023-09-07T14:20:32;38.30;1.00
480;DHT22;226;48.606;9.096;2023-09-07T14:23:00;38.60;1.00
480;DHT22;226;48.606;9.096;2023-09-07T14:25:29;38.30;1.00
480;DHT22;226;48.606;9.096;2023-09-07T14:27:57;38.30;1.00
480;DHT22;226;48.606;9.096;2023-09-07T14:30:25;38.60;1.00
480;DHT22;226;48.606;9.096;2023-09-07T14:32:55;38.80;1.00
480;DHT22;226;48.606;9.096;2023-09-07T14:35:23;38.80;1.00
480;DHT22;226;48.606;9.096;2023-09-07T14:37:51;38.40;1.00
480;DHT22;226;48.606;9.096;2023-09-07T14:40:20;38.50;1.00
480;DHT22;226;48.606;9.096;2023-09-07T14:42:52;38.80;1.00
480;DHT22;226;48.606;9.096;2023-09-07T14:45:20;38.90;1.00
480;DHT22;226;48.606;9.096;2023-09-07T14:47:48;38.50;1.00
480;DHT22;226;48.606;9.096;2023-09-07T14:50:18;38.70;1.00
480;DHT22;226;48.606;9.096;2023-09-07T14:52:46;38.80;1.00
480;DHT22;226;48.606;9.096;2023-09-07T14:55:15;39.20;1.00
480;DHT22;226;48.606;9.096;2023-09-07T14:57:43;39.50;1.00
480;DHT22;226;48.606;9.096;2023-09-07T15:00:12;39.00;1.00
480;DHT22;226;48.606;9.096;2023-09-07T15:02:40;38.90;1.00
480;DHT22;226;48.606;9.096;2023-09-07T15:05:08;38.60;1.00
480;DHT22;226;48.606;9.096;2023-09-07T15:07:38;38.80;1.00
480;DHT22;226;48.606;9.096;2023-09-07T15:10:06;39.10;1.00
480;DHT22;226;48.606;9.096;2023-09-07T15:12:35;38.90;1.00
480;DHT22;226;48.606;9.096;2023-09-07T15:15:04;39.30;1.00
480;DHT22;226;48.606;9.096;2023-09-07T15:17:32;39.60;1.00
480;DHT22;226;48.606;9.096;2023-09-07T15:20:00;39.20;1.00
480;DHT22;226;48.606;9.096;2023-09-07T15:22:28;38.30;1.00
480;DHT22;226;48.606;9.096;2023-09-07T15:24:57;38.00;1.00
480;DHT22;226;48.606;9.096;2023-09-07T15:27:27;38.30;1.00
480;DHT22;226;48.606;9.096;2023-09-07T15:29:55;38.20;1.00
480;DHT22;226;48.606;9.096;2023-09-07T15:32:23;38.30;1.00
480;DHT22;226;48.606;9.096;2023-09-07T15:34:51;38.60;1.00
480;DHT22;226;48.606;9.096;2023-09-07T15:37:20;38.80;1.00
480;DHT22;226;48.606;9.096;2023-09-07T15:39:48;39.30;1.00
480;DHT22;226;48.606;9.096;2023-09-07T15:42:18;38.90;1.00
480;DHT22;226;48.606;9.096;2023-09-07T15:44:47;38.10;1.00
480;DHT22;226;48.606;9.096;2023-09-07T15:47:15;36.80;1.00
480;DHT22;226;48.606;9.096;2023-09-07T15:49:43;35.60;1.00
480;DHT22;226;48.606;9.096;2023-09-07T15:52:13;34.70;1.00
480;DHT22;226;48.606;9.096;2023-09-07T15:54:41;33.60;1.00
480;DHT22;226;48.606;9.096;2023-09-07T15:57:09;32.70;1.00
480;DHT22;226;48.606;9.096;2023-09-07T15:59:38;32.00;1.00
480;DHT22;226;48.606;9.096;2023-09-07T16:02:06;31.30;1.00
480;DHT22;226;48.606;9.096;2023-09-07T16:04:34;30.70;1.00
480;DHT22;226;48.606;9.096;2023-09-07T16:07:02;30.20;1.00
480;DHT22;226;48.606;9.096;2023-09-07T16:09:31;29.90;1.00
480;DHT22;226;48.606;9.096;2023-09-07T16:11:59;29.50;1.00
480;DHT22;226;48.606;9.096;2023-09-07T16:14:27;29.30;1.00
480;DHT22;226;48.606;9.096;2023-09-07T16:16:57;29.00;1.00
480;DHT22;226;48.606;9.096;2023-09-07T16:19:26;28.80;1.00
480;DHT22;226;48.606;9.096;2023-09-07T16:21:54;28.70;1.00
480;DHT22;226;48.606;9.096;2023-09-07T16:24:22;28.40;1.00
480;DHT22;226;48.606;9.096;2023-09-07T16:26:50;28.30;1.00
480;DHT22;226;48.606;9.096;2023-09-07T16:29:19;28.20;1.00
480;DHT22;226;48.606;9.096;2023-09-07T16:31:47;28.10;1.00
480;DHT22;226;48.606;9.096;2023-09-07T16:34:16;28.00;1.00
480;DHT22;226;48.606;9.096;2023-09-07T16:36:44;27.90;1.00
480;DHT22;226;48.606;9.096;2023-09-07T16:39:13;27.80;1.00
480;DHT22;226;48.606;9.096;2023-09-07T16:41:41;27.80;1.00
480;DHT22;226;48.606;9.096;2023-09-07T16:44:09;27.60;1.00
480;DHT22;226;48.606;9.096;2023-09-07T16:46:37;27.50;1.00
480;DHT22;226;48.606;9.096;2023-09-07T16:49:05;27.50;1.00
480;DHT22;226;48.606;9.096;2023-09-07T16:51:35;27.40;1.00
480;DHT22;226;48.606;9.096;2023-09-07T16:54:03;27.40;1.00
480;DHT22;226;48.606;9.096;2023-09-07T16:56:31;27.30;1.00
480;DHT22;226;48.606;9.096;2023-09-07T16:58:59;27.20;1.00